createdAt,value
2016-12-27T00:00:20.399Z,0
2016-12-27T00:01:29.098Z,0
2016-12-27T00:02:37.793Z,0
2016-12-27T00:03:46.489Z,0
2016-12-27T00:04:55.192Z,0
2016-12-27T00:06:03.888Z,0
2016-12-27T00:07:12.620Z,0
2016-12-27T00:08:21.348Z,0
2016-12-27T00:09:30.046Z,0
2016-12-27T00:10:38.744Z,0
2016-12-27T00:11:47.440Z,0
2016-12-27T00:12:56.143Z,0
2016-12-27T00:14:04.840Z,0
2016-12-27T00:15:13.563Z,0
2016-12-27T00:16:22.260Z,0
2016-12-27T00:17:30.953Z,0
2016-12-27T00:18:39.650Z,0
2016-12-27T00:19:48.342Z,0
2016-12-27T00:20:57.041Z,0
2016-12-27T00:22:05.735Z,0
2016-12-27T00:23:14.433Z,0
2016-12-27T00:24:23.128Z,0
2016-12-27T00:25:31.823Z,0
2016-12-27T00:26:40.520Z,0
2016-12-27T00:27:49.217Z,0
2016-12-27T00:28:57.911Z,0
2016-12-27T00:30:06.612Z,0
2016-12-27T00:31:15.306Z,0
2016-12-27T00:32:24.010Z,0
2016-12-27T00:33:32.707Z,0
2016-12-27T00:34:41.406Z,0
2016-12-27T00:35:50.102Z,0
2016-12-27T00:36:58.797Z,0
2016-12-27T00:38:07.499Z,0
2016-12-27T00:39:16.196Z,0
2016-12-27T00:40:24.893Z,0
2016-12-27T00:41:33.592Z,0
2016-12-27T00:42:42.289Z,0
2016-12-27T00:43:50.991Z,0
2016-12-27T00:44:59.686Z,0
2016-12-27T00:46:08.385Z,0
2016-12-27T00:47:17.082Z,0
2016-12-27T00:48:25.781Z,0
2016-12-27T00:49:34.512Z,0
2016-12-27T00:50:43.208Z,0
2016-12-27T00:51:51.906Z,0
2016-12-27T00:53:00.602Z,0
2016-12-27T00:54:09.303Z,0
2016-12-27T00:55:17.999Z,0
2016-12-27T00:56:26.697Z,0
2016-12-27T00:57:35.408Z,0
2016-12-27T00:58:44.419Z,0
2016-12-27T00:59:53.118Z,0
2016-12-27T01:01:01.817Z,0
2016-12-27T01:02:10.514Z,0
2016-12-27T01:03:19.218Z,0
2016-12-27T01:04:27.923Z,0
2016-12-27T01:05:36.619Z,0
2016-12-27T01:06:45.313Z,0
2016-12-27T01:07:54.010Z,0
2016-12-27T01:09:02.715Z,0
2016-12-27T01:10:11.724Z,0
2016-12-27T01:11:20.427Z,0
2016-12-27T01:12:29.132Z,0
2016-12-27T01:13:37.832Z,0
2016-12-27T01:14:46.531Z,0
2016-12-27T01:15:55.227Z,0
2016-12-27T01:17:03.927Z,0
2016-12-27T01:18:12.628Z,0
2016-12-27T01:19:21.322Z,0
2016-12-27T01:20:30.019Z,0
2016-12-27T01:21:38.714Z,0
2016-12-27T01:22:47.443Z,0
2016-12-27T01:23:56.136Z,0
2016-12-27T01:25:04.831Z,0
2016-12-27T01:26:13.527Z,0
2016-12-27T01:27:22.222Z,0
2016-12-27T01:28:30.916Z,0
2016-12-27T01:29:39.612Z,0
2016-12-27T01:30:48.307Z,0
2016-12-27T01:31:57.001Z,0
2016-12-27T01:33:05.698Z,0
2016-12-27T01:34:14.392Z,0
2016-12-27T01:35:23.091Z,0
2016-12-27T01:36:31.784Z,0
2016-12-27T01:37:40.477Z,0
2016-12-27T01:38:49.171Z,0
2016-12-27T01:39:57.868Z,0
2016-12-27T01:41:06.564Z,0
2016-12-27T01:42:15.259Z,0
2016-12-27T01:43:23.950Z,0
2016-12-27T01:44:32.645Z,0
2016-12-27T01:45:41.341Z,0
2016-12-27T01:46:50.041Z,0
2016-12-27T01:47:58.744Z,0
2016-12-27T01:49:07.449Z,0
2016-12-27T01:50:16.146Z,0
2016-12-27T01:51:24.840Z,0
2016-12-27T01:52:33.530Z,0
2016-12-27T01:53:42.231Z,0
2016-12-27T01:54:50.937Z,0
2016-12-27T01:55:59.635Z,0
2016-12-27T01:57:08.330Z,0
2016-12-27T01:58:17.023Z,0
2016-12-27T01:59:25.718Z,0
2016-12-27T02:00:34.413Z,0
2016-12-27T02:01:43.115Z,0
2016-12-27T02:02:51.812Z,0
2016-12-27T02:04:00.503Z,0
2016-12-27T02:05:09.199Z,0
2016-12-27T02:06:17.918Z,0
2016-12-27T02:07:26.615Z,0
2016-12-27T02:08:35.348Z,0
2016-12-27T02:09:44.368Z,0
2016-12-27T02:10:53.068Z,0
2016-12-27T02:12:01.770Z,0
2016-12-27T02:13:10.464Z,0
2016-12-27T02:14:19.159Z,0
2016-12-27T02:15:27.873Z,0
2016-12-27T02:16:36.566Z,0
2016-12-27T02:17:45.260Z,0
2016-12-27T02:18:53.957Z,0
2016-12-27T02:20:02.653Z,0
2016-12-27T02:21:11.350Z,0
2016-12-27T02:22:20.048Z,0
2016-12-27T02:23:28.744Z,0
2016-12-27T02:24:37.438Z,0
2016-12-27T02:25:46.136Z,0
2016-12-27T02:26:54.831Z,0
2016-12-27T02:28:03.534Z,0
2016-12-27T02:29:12.232Z,0
2016-12-27T02:30:20.932Z,0
2016-12-27T02:31:29.626Z,0
2016-12-27T02:32:38.322Z,0
2016-12-27T02:33:47.040Z,0
2016-12-27T02:34:55.787Z,0
2016-12-27T02:36:04.485Z,0
2016-12-27T02:37:13.183Z,0
2016-12-27T02:38:21.878Z,0
2016-12-27T02:39:30.569Z,0
2016-12-27T02:40:39.267Z,0
2016-12-27T02:41:47.972Z,0
2016-12-27T02:42:56.667Z,0
2016-12-27T02:44:05.400Z,0
2016-12-27T02:45:14.119Z,0
2016-12-27T02:46:23.130Z,0
2016-12-27T02:47:31.829Z,0
2016-12-27T02:48:40.522Z,0
2016-12-27T02:49:49.221Z,0
2016-12-27T02:50:57.925Z,0
2016-12-27T02:52:06.622Z,0
2016-12-27T02:53:15.318Z,0
2016-12-27T02:54:24.016Z,0
2016-12-27T02:55:32.710Z,0
2016-12-27T02:56:41.404Z,0
2016-12-27T02:57:50.100Z,0
2016-12-27T02:58:58.795Z,0
2016-12-27T03:00:07.488Z,0
2016-12-27T03:01:16.181Z,0
2016-12-27T03:02:24.879Z,0
2016-12-27T03:03:33.673Z,0
2016-12-27T03:04:42.366Z,0
2016-12-27T03:05:51.061Z,0
2016-12-27T03:06:59.761Z,0
2016-12-27T03:08:08.460Z,0
2016-12-27T03:09:17.159Z,0
2016-12-27T03:10:25.860Z,0
2016-12-27T03:11:34.558Z,0
2016-12-27T03:12:43.256Z,0
2016-12-27T03:13:51.952Z,0
2016-12-27T03:15:00.646Z,0
2016-12-27T03:16:09.667Z,0
2016-12-27T03:17:18.367Z,0
2016-12-27T03:18:27.084Z,0
2016-12-27T03:19:35.778Z,0
2016-12-27T03:20:44.477Z,0
2016-12-27T03:21:53.172Z,0
2016-12-27T03:23:01.872Z,0
2016-12-27T03:24:10.567Z,0
2016-12-27T03:25:19.259Z,0
2016-12-27T03:26:27.979Z,0
2016-12-27T03:27:36.675Z,0
2016-12-27T03:28:45.680Z,0
2016-12-27T03:29:54.375Z,0
2016-12-27T03:31:03.101Z,0
2016-12-27T03:32:11.803Z,0
2016-12-27T03:33:20.496Z,0
2016-12-27T03:34:29.212Z,0
2016-12-27T03:35:37.913Z,0
2016-12-27T03:36:46.613Z,0
2016-12-27T03:37:55.321Z,0
2016-12-27T03:39:04.023Z,0
2016-12-27T03:40:12.747Z,0
2016-12-27T03:41:21.446Z,0
2016-12-27T03:42:30.139Z,0
2016-12-27T03:43:38.831Z,0
2016-12-27T03:44:47.528Z,0
2016-12-27T03:45:56.225Z,0
2016-12-27T03:47:04.917Z,0
2016-12-27T03:48:13.613Z,0
2016-12-27T03:49:22.308Z,0
2016-12-27T03:50:31.009Z,0
2016-12-27T03:51:39.710Z,0
2016-12-27T03:52:48.406Z,0
2016-12-27T03:53:57.101Z,0
2016-12-27T03:55:05.797Z,0
2016-12-27T03:56:14.521Z,0
2016-12-27T03:57:23.216Z,0
2016-12-27T03:58:31.912Z,0
2016-12-27T03:59:40.608Z,0
2016-12-27T04:00:49.307Z,0
2016-12-27T04:01:58.001Z,0
2016-12-27T04:03:06.697Z,0
2016-12-27T04:04:15.396Z,0
2016-12-27T04:05:24.095Z,0
2016-12-27T04:06:32.788Z,0
2016-12-27T04:07:41.483Z,0
2016-12-27T04:08:50.180Z,0
2016-12-27T04:09:58.875Z,0
2016-12-27T04:11:07.574Z,0
2016-12-27T04:12:16.269Z,0
2016-12-27T04:13:24.990Z,0
2016-12-27T04:14:33.685Z,0
2016-12-27T04:15:42.390Z,0
2016-12-27T04:16:51.113Z,0
2016-12-27T04:18:00.190Z,0
2016-12-27T04:19:08.888Z,0
2016-12-27T04:20:17.584Z,0
2016-12-27T04:21:26.287Z,0
2016-12-27T04:22:34.979Z,0
2016-12-27T04:23:43.674Z,0
2016-12-27T04:24:52.368Z,0
2016-12-27T04:26:01.060Z,0
2016-12-27T04:27:09.756Z,0
2016-12-27T04:28:18.450Z,0
2016-12-27T04:29:27.162Z,0
2016-12-27T04:30:36.176Z,0
2016-12-27T04:31:44.871Z,0
2016-12-27T04:32:53.564Z,0
2016-12-27T04:34:02.260Z,0
2016-12-27T04:35:10.957Z,0
2016-12-27T04:36:19.652Z,0
2016-12-27T04:37:28.350Z,0
2016-12-27T04:38:37.045Z,0
2016-12-27T04:39:45.742Z,0
2016-12-27T04:40:54.437Z,0
2016-12-27T04:42:03.134Z,0
2016-12-27T04:43:11.832Z,0
2016-12-27T04:44:20.530Z,0
2016-12-27T04:45:29.228Z,0
2016-12-27T04:46:37.926Z,0
2016-12-27T04:47:46.618Z,0
2016-12-27T04:48:55.324Z,0
2016-12-27T04:50:04.362Z,0
2016-12-27T04:51:13.061Z,0
2016-12-27T04:52:21.755Z,0
2016-12-27T04:53:30.449Z,0
2016-12-27T04:54:39.151Z,0
2016-12-27T04:55:47.846Z,0
2016-12-27T04:56:56.538Z,0
2016-12-27T04:58:05.236Z,0
2016-12-27T04:59:13.932Z,0
2016-12-27T05:00:22.628Z,0
2016-12-27T05:01:31.326Z,0
2016-12-27T05:02:40.020Z,0
2016-12-27T05:03:48.742Z,0
2016-12-27T05:04:57.440Z,0
2016-12-27T05:06:06.137Z,0
2016-12-27T05:07:14.835Z,0
2016-12-27T05:08:23.528Z,0
2016-12-27T05:09:32.248Z,0
2016-12-27T05:10:40.948Z,0
2016-12-27T05:11:49.648Z,0
2016-12-27T05:12:58.346Z,0
2016-12-27T05:14:07.040Z,0
2016-12-27T05:15:15.734Z,0
2016-12-27T05:16:24.441Z,0
2016-12-27T05:17:33.134Z,0
2016-12-27T05:18:41.829Z,0
2016-12-27T05:19:50.530Z,0
2016-12-27T05:20:59.577Z,0
2016-12-27T05:22:08.294Z,0
2016-12-27T05:23:16.993Z,0
2016-12-27T05:24:25.716Z,0
2016-12-27T05:25:34.413Z,0
2016-12-27T05:26:43.106Z,0
2016-12-27T05:27:51.803Z,0
2016-12-27T05:29:00.509Z,0
2016-12-27T05:30:09.521Z,0
2016-12-27T05:31:18.217Z,0
2016-12-27T05:32:26.911Z,0
2016-12-27T05:33:35.610Z,0
2016-12-27T05:34:44.628Z,0
2016-12-27T05:35:53.320Z,0
2016-12-27T05:37:02.014Z,0
2016-12-27T05:38:10.711Z,0
2016-12-27T05:39:19.411Z,0
2016-12-27T05:40:28.105Z,0
2016-12-27T05:41:36.796Z,0
2016-12-27T05:42:45.804Z,0
2016-12-27T05:43:54.500Z,0
2016-12-27T05:45:03.194Z,0
2016-12-27T05:46:11.891Z,0
2016-12-27T05:47:20.611Z,0
2016-12-27T05:48:29.305Z,0
2016-12-27T05:49:38.009Z,0
2016-12-27T05:50:46.700Z,0
2016-12-27T05:51:55.393Z,0
2016-12-27T05:53:04.092Z,0
2016-12-27T05:54:12.789Z,0
2016-12-27T05:55:21.491Z,0
2016-12-27T05:56:30.498Z,0
2016-12-27T05:57:39.187Z,0
2016-12-27T05:58:47.883Z,0
2016-12-27T05:59:56.576Z,0
2016-12-27T06:01:05.908Z,0
2016-12-27T06:02:14.636Z,0
2016-12-27T06:03:23.340Z,0
2016-12-27T06:04:32.035Z,0
2016-12-27T06:05:40.732Z,0
2016-12-27T06:06:49.430Z,0
2016-12-27T06:07:58.124Z,0
2016-12-27T06:09:06.819Z,0
2016-12-27T06:10:15.516Z,0
2016-12-27T06:11:24.235Z,0
2016-12-27T06:12:32.928Z,0
2016-12-27T06:13:41.624Z,0
2016-12-27T06:14:50.347Z,0
2016-12-27T06:15:59.362Z,0
2016-12-27T06:17:08.058Z,0
2016-12-27T06:18:17.074Z,0
2016-12-27T06:19:25.766Z,0
2016-12-27T06:20:34.461Z,0
2016-12-27T06:21:43.156Z,0
2016-12-27T06:22:51.847Z,0
2016-12-27T06:24:00.550Z,0
2016-12-27T06:25:09.247Z,0
2016-12-27T06:26:17.939Z,0
2016-12-27T06:27:26.632Z,0
2016-12-27T06:28:35.329Z,0
2016-12-27T06:29:44.023Z,0
2016-12-27T06:30:52.723Z,0
2016-12-27T06:32:01.422Z,0
2016-12-27T06:33:10.121Z,0
2016-12-27T06:34:18.813Z,0
2016-12-27T06:35:27.506Z,0
2016-12-27T06:36:36.197Z,0
2016-12-27T06:37:44.891Z,0
2016-12-27T06:38:53.585Z,0
2016-12-27T06:40:02.284Z,0
2016-12-27T06:41:11.293Z,0
2016-12-27T06:42:19.993Z,0
2016-12-27T06:43:28.687Z,0
2016-12-27T06:44:37.389Z,0
2016-12-27T06:45:46.114Z,0
2016-12-27T06:46:54.808Z,0
2016-12-27T06:48:03.504Z,0
2016-12-27T06:49:12.196Z,0
2016-12-27T06:50:20.895Z,0
2016-12-27T06:51:29.596Z,0
2016-12-27T06:52:38.292Z,0
2016-12-27T06:53:46.988Z,0
2016-12-27T06:54:55.678Z,0
2016-12-27T06:56:04.374Z,0
2016-12-27T06:57:13.069Z,0
2016-12-27T06:58:21.763Z,0
2016-12-27T06:59:30.460Z,0
2016-12-27T07:00:39.153Z,0
2016-12-27T07:01:47.846Z,0
2016-12-27T07:02:56.542Z,0
2016-12-27T07:04:05.239Z,0
2016-12-27T07:05:14.249Z,0
2016-12-27T07:06:22.939Z,0
2016-12-27T07:07:31.637Z,0
2016-12-27T07:08:40.332Z,0
2016-12-27T07:09:49.026Z,0
2016-12-27T07:10:57.721Z,0
2016-12-27T07:12:06.421Z,0
2016-12-27T07:13:15.114Z,0
2016-12-27T07:14:23.815Z,0
2016-12-27T07:15:32.825Z,0
2016-12-27T07:16:41.521Z,0
2016-12-27T07:17:50.215Z,0
2016-12-27T07:18:58.908Z,0
2016-12-27T07:20:07.603Z,0
2016-12-27T07:21:16.293Z,0
2016-12-27T07:22:24.993Z,0
2016-12-27T07:23:33.684Z,0
2016-12-27T07:24:42.378Z,0
2016-12-27T07:25:51.074Z,0
2016-12-27T07:26:59.772Z,0
2016-12-27T07:28:08.470Z,0
2016-12-27T07:29:17.167Z,0
2016-12-27T07:30:25.866Z,0
2016-12-27T07:31:34.560Z,0
2016-12-27T07:32:43.252Z,0
2016-12-27T07:33:51.947Z,0
2016-12-27T07:35:00.639Z,0
2016-12-27T07:36:09.332Z,0
2016-12-27T07:37:18.024Z,0
2016-12-27T07:38:26.719Z,0
2016-12-27T07:39:35.425Z,0
2016-12-27T07:40:44.115Z,0
2016-12-27T07:41:52.813Z,0
2016-12-27T07:43:01.535Z,0
2016-12-27T07:44:10.235Z,0
2016-12-27T07:45:18.927Z,0
2016-12-27T07:46:27.620Z,0
2016-12-27T07:47:36.309Z,0
2016-12-27T07:48:45.003Z,0
2016-12-27T07:49:53.700Z,0
2016-12-27T07:51:02.394Z,0
2016-12-27T07:52:11.106Z,0
2016-12-27T07:53:20.121Z,0
2016-12-27T07:54:28.815Z,0
2016-12-27T07:55:37.511Z,0
2016-12-27T07:56:46.203Z,0
2016-12-27T07:57:54.893Z,0
2016-12-27T07:59:03.607Z,0
2016-12-27T08:00:12.616Z,0
2016-12-27T08:01:21.307Z,0
2016-12-27T08:02:29.998Z,0
2016-12-27T08:03:38.691Z,0
2016-12-27T08:04:47.387Z,0
2016-12-27T08:05:56.080Z,0
2016-12-27T08:07:04.801Z,0
2016-12-27T08:08:13.496Z,0
2016-12-27T08:09:22.189Z,5
2016-12-27T08:10:30.884Z,5
2016-12-27T08:11:39.613Z,5
2016-12-27T08:12:48.310Z,5
2016-12-27T08:13:57.002Z,5
2016-12-27T08:15:05.699Z,5
2016-12-27T08:16:14.396Z,5
2016-12-27T08:17:23.091Z,5
2016-12-27T08:18:31.784Z,5
2016-12-27T08:19:40.480Z,5
2016-12-27T08:20:49.176Z,10
2016-12-27T08:21:57.871Z,10
2016-12-27T08:23:06.566Z,10
2016-12-27T08:24:15.291Z,10
2016-12-27T08:25:23.989Z,10
2016-12-27T08:26:32.690Z,10
2016-12-27T08:27:41.380Z,10
2016-12-27T08:28:50.072Z,10
2016-12-27T08:29:58.766Z,15
2016-12-27T08:31:07.462Z,15
2016-12-27T08:32:16.157Z,15
2016-12-27T08:33:24.852Z,15
2016-12-27T08:34:33.544Z,15
2016-12-27T08:35:42.244Z,15
2016-12-27T08:36:50.941Z,20
2016-12-27T08:37:59.687Z,20
2016-12-27T08:39:08.387Z,20
2016-12-27T08:40:17.079Z,20
2016-12-27T08:41:25.770Z,20
2016-12-27T08:42:34.465Z,20
2016-12-27T08:43:43.161Z,25
2016-12-27T08:44:51.853Z,25
2016-12-27T08:46:00.574Z,25
2016-12-27T08:47:09.269Z,25
2016-12-27T08:48:17.968Z,25
2016-12-27T08:49:26.661Z,25
2016-12-27T08:50:35.354Z,30
2016-12-27T08:51:44.051Z,30
2016-12-27T08:52:52.779Z,30
2016-12-27T08:54:01.493Z,30
2016-12-27T08:55:10.187Z,30
2016-12-27T08:56:18.881Z,35
2016-12-27T08:57:27.574Z,35
2016-12-27T08:58:36.319Z,35
2016-12-27T08:59:45.014Z,35
2016-12-27T09:00:53.706Z,35
2016-12-27T09:02:02.405Z,35
2016-12-27T09:03:11.101Z,40
2016-12-27T09:04:19.795Z,40
2016-12-27T09:05:28.495Z,40
2016-12-27T09:06:37.184Z,40
2016-12-27T09:07:45.880Z,45
2016-12-27T09:08:54.573Z,45
2016-12-27T09:10:03.272Z,45
2016-12-27T09:11:11.998Z,50
2016-12-27T09:12:20.694Z,50
2016-12-27T09:13:29.385Z,50
2016-12-27T09:14:38.080Z,55
2016-12-27T09:15:46.775Z,55
2016-12-27T09:16:55.470Z,55
2016-12-27T09:18:04.168Z,55
2016-12-27T09:19:12.892Z,55
2016-12-27T09:20:21.586Z,55
2016-12-27T09:21:30.282Z,55
2016-12-27T09:22:38.976Z,55
2016-12-27T09:23:47.668Z,55
2016-12-27T09:24:56.358Z,55
2016-12-27T09:26:05.051Z,60
2016-12-27T09:27:13.744Z,60
2016-12-27T09:28:22.440Z,60
2016-12-27T09:29:31.135Z,60
2016-12-27T09:30:39.829Z,60
2016-12-27T09:31:48.522Z,60
2016-12-27T09:32:57.213Z,60
2016-12-27T09:34:05.908Z,60
2016-12-27T09:35:14.921Z,65
2016-12-27T09:36:23.618Z,65
2016-12-27T09:37:32.309Z,70
2016-12-27T09:38:40.999Z,70
2016-12-27T09:39:49.720Z,65
2016-12-27T09:40:58.415Z,65
2016-12-27T09:42:07.124Z,70
2016-12-27T09:43:15.819Z,70
2016-12-27T09:44:24.517Z,70
2016-12-27T09:45:33.223Z,70
2016-12-27T09:46:41.921Z,70
2016-12-27T09:47:50.933Z,70
2016-12-27T09:48:59.633Z,70
2016-12-27T09:50:08.328Z,70
2016-12-27T09:51:17.024Z,75
2016-12-27T09:52:25.714Z,75
2016-12-27T09:53:34.414Z,75
2016-12-27T09:54:43.108Z,75
2016-12-27T09:55:51.801Z,75
2016-12-27T09:57:00.499Z,75
2016-12-27T09:58:09.189Z,75
2016-12-27T09:59:17.885Z,75
2016-12-27T10:00:26.580Z,80
2016-12-27T10:01:35.276Z,80
2016-12-27T10:02:43.972Z,80
2016-12-27T10:03:52.671Z,80
2016-12-27T10:05:01.364Z,80
2016-12-27T10:06:10.067Z,80
2016-12-27T10:07:18.762Z,80
2016-12-27T10:08:27.457Z,80
2016-12-27T10:09:36.161Z,80
2016-12-27T10:10:44.853Z,85
2016-12-27T10:11:53.549Z,85
2016-12-27T10:13:02.247Z,85
2016-12-27T10:14:10.941Z,85
2016-12-27T10:15:19.638Z,85
2016-12-27T10:16:28.334Z,85
2016-12-27T10:17:37.033Z,85
2016-12-27T10:18:45.726Z,85
2016-12-27T10:19:54.420Z,85
2016-12-27T10:21:03.121Z,90
2016-12-27T10:22:11.816Z,90
2016-12-27T10:23:20.512Z,90
2016-12-27T10:24:29.208Z,90
2016-12-27T10:25:37.909Z,90
2016-12-27T10:26:46.602Z,90
2016-12-27T10:27:55.294Z,90
2016-12-27T10:29:03.992Z,90
2016-12-27T10:30:12.712Z,90
2016-12-27T10:31:21.406Z,90
2016-12-27T10:32:30.103Z,90
2016-12-27T10:33:38.808Z,95
2016-12-27T10:34:47.500Z,95
2016-12-27T10:35:56.193Z,115
2016-12-27T10:37:04.887Z,230
2016-12-27T10:38:13.579Z,295
2016-12-27T10:39:22.277Z,310
2016-12-27T10:40:30.972Z,330
2016-12-27T10:41:39.670Z,335
2016-12-27T10:42:48.366Z,340
2016-12-27T10:43:57.072Z,310
2016-12-27T10:45:05.768Z,260
2016-12-27T10:46:14.464Z,240
2016-12-27T10:47:23.162Z,225
2016-12-27T10:48:31.859Z,220
2016-12-27T10:49:40.556Z,205
2016-12-27T10:50:49.254Z,195
2016-12-27T10:51:57.945Z,190
2016-12-27T10:53:06.744Z,185
2016-12-27T10:54:15.443Z,185
2016-12-27T10:55:24.138Z,185
2016-12-27T10:56:32.833Z,185
2016-12-27T10:57:41.530Z,190
2016-12-27T10:58:50.228Z,190
2016-12-27T10:59:58.928Z,190
2016-12-27T11:01:07.629Z,195
2016-12-27T11:02:16.329Z,195
2016-12-27T11:03:25.023Z,195
2016-12-27T11:04:33.727Z,195
2016-12-27T11:05:42.420Z,200
2016-12-27T11:06:51.118Z,200
2016-12-27T11:07:59.810Z,205
2016-12-27T11:09:08.522Z,205
2016-12-27T11:10:17.222Z,205
2016-12-27T11:11:25.920Z,210
2016-12-27T11:12:34.626Z,210
2016-12-27T11:13:43.324Z,210
2016-12-27T11:14:52.020Z,210
2016-12-27T11:16:00.715Z,215
2016-12-27T11:17:09.415Z,215
2016-12-27T11:18:18.141Z,215
2016-12-27T11:19:26.876Z,215
2016-12-27T11:20:35.576Z,215
2016-12-27T11:21:44.273Z,215
2016-12-27T11:22:52.972Z,215
2016-12-27T11:24:01.700Z,215
2016-12-27T11:25:10.397Z,215
2016-12-27T11:26:19.095Z,215
2016-12-27T11:27:27.792Z,215
2016-12-27T11:28:36.489Z,215
2016-12-27T11:29:45.187Z,215
2016-12-27T11:30:53.886Z,215
2016-12-27T11:32:02.589Z,215
2016-12-27T11:33:11.291Z,220
2016-12-27T11:34:19.993Z,220
2016-12-27T11:35:28.690Z,220
2016-12-27T11:36:37.707Z,200
2016-12-27T11:37:46.405Z,165
2016-12-27T11:38:55.100Z,220
2016-12-27T11:40:03.802Z,225
2016-12-27T11:41:12.500Z,230
2016-12-27T11:42:21.197Z,230
2016-12-27T11:43:29.894Z,235
2016-12-27T11:44:38.590Z,235
2016-12-27T11:45:47.328Z,230
2016-12-27T11:46:56.028Z,235
2016-12-27T11:48:04.727Z,235
2016-12-27T11:49:13.424Z,235
2016-12-27T11:50:22.121Z,235
2016-12-27T11:51:30.818Z,230
2016-12-27T11:52:39.522Z,235
2016-12-27T11:53:48.222Z,230
2016-12-27T11:54:56.926Z,230
2016-12-27T11:56:05.629Z,235
2016-12-27T11:57:14.331Z,235
2016-12-27T11:58:23.031Z,235
2016-12-27T11:59:31.728Z,215
2016-12-27T12:00:40.428Z,185
2016-12-27T12:01:49.134Z,240
2016-12-27T12:02:57.841Z,245
2016-12-27T12:04:06.548Z,245
2016-12-27T12:05:15.244Z,245
2016-12-27T12:06:23.970Z,245
2016-12-27T12:07:32.669Z,240
2016-12-27T12:08:41.366Z,245
2016-12-27T12:09:50.066Z,245
2016-12-27T12:10:58.764Z,250
2016-12-27T12:12:07.496Z,250
2016-12-27T12:13:16.199Z,245
2016-12-27T12:14:24.932Z,245
2016-12-27T12:15:33.649Z,245
2016-12-27T12:16:42.342Z,255
2016-12-27T12:17:51.046Z,250
2016-12-27T12:18:59.748Z,255
2016-12-27T12:20:08.458Z,260
2016-12-27T12:21:17.156Z,260
2016-12-27T12:22:25.854Z,265
2016-12-27T12:23:34.552Z,270
2016-12-27T12:24:43.257Z,265
2016-12-27T12:25:51.957Z,215
2016-12-27T12:27:00.972Z,175
2016-12-27T12:28:09.669Z,170
2016-12-27T12:29:18.364Z,160
2016-12-27T12:30:27.065Z,160
2016-12-27T12:31:35.767Z,210
2016-12-27T12:32:44.463Z,245
2016-12-27T12:33:53.163Z,245
2016-12-27T12:35:01.865Z,215
2016-12-27T12:36:10.566Z,165
2016-12-27T12:37:19.259Z,145
2016-12-27T12:38:27.956Z,130
2016-12-27T12:39:36.657Z,135
2016-12-27T12:40:45.352Z,165
2016-12-27T12:41:54.058Z,215
2016-12-27T12:43:02.758Z,225
2016-12-27T12:44:11.457Z,180
2016-12-27T12:45:20.159Z,160
2016-12-27T12:46:28.860Z,140
2016-12-27T12:47:37.591Z,130
2016-12-27T12:48:46.290Z,145
2016-12-27T12:49:54.992Z,185
2016-12-27T12:51:03.692Z,230
2016-12-27T12:52:12.392Z,260
2016-12-27T12:53:21.093Z,175
2016-12-27T12:54:29.793Z,125
2016-12-27T12:55:38.493Z,120
2016-12-27T12:56:47.194Z,105
2016-12-27T12:57:55.893Z,90
2016-12-27T12:59:04.591Z,85
2016-12-27T13:00:13.289Z,80
2016-12-27T13:01:21.993Z,80
2016-12-27T13:02:30.694Z,75
2016-12-27T13:03:39.391Z,80
2016-12-27T13:04:48.091Z,80
2016-12-27T13:05:56.793Z,75
2016-12-27T13:07:05.494Z,70
2016-12-27T13:08:14.189Z,70
2016-12-27T13:09:22.897Z,65
2016-12-27T13:10:31.595Z,85
2016-12-27T13:11:40.289Z,135
2016-12-27T13:12:48.982Z,120
2016-12-27T13:13:57.684Z,85
2016-12-27T13:15:06.383Z,65
2016-12-27T13:16:15.104Z,65
2016-12-27T13:17:23.806Z,65
2016-12-27T13:18:32.569Z,60
2016-12-27T13:19:41.266Z,60
2016-12-27T13:20:49.959Z,60
2016-12-27T13:21:58.681Z,55
2016-12-27T13:23:07.378Z,55
2016-12-27T13:24:16.085Z,55
2016-12-27T13:25:24.782Z,55
2016-12-27T13:26:33.481Z,50
2016-12-27T13:27:42.180Z,50
2016-12-27T13:28:50.878Z,50
2016-12-27T13:29:59.573Z,50
2016-12-27T13:31:08.272Z,50
2016-12-27T13:32:16.972Z,50
2016-12-27T13:33:25.715Z,50
2016-12-27T13:34:34.410Z,45
2016-12-27T13:35:43.107Z,45
2016-12-27T13:36:51.803Z,45
2016-12-27T13:38:00.500Z,45
2016-12-27T13:39:09.197Z,45
2016-12-27T13:40:17.896Z,40
2016-12-27T13:41:26.595Z,40
2016-12-27T13:42:35.293Z,40
2016-12-27T13:43:43.992Z,40
2016-12-27T13:44:52.681Z,35
2016-12-27T13:46:01.374Z,35
2016-12-27T13:47:10.080Z,35
2016-12-27T13:48:18.773Z,30
2016-12-27T13:49:27.469Z,30
2016-12-27T13:50:36.168Z,30
2016-12-27T13:51:44.887Z,30
2016-12-27T13:52:53.580Z,30
2016-12-27T13:54:02.279Z,30
2016-12-27T13:55:10.978Z,25
2016-12-27T13:56:19.671Z,25
2016-12-27T13:57:28.367Z,25
2016-12-27T13:58:37.065Z,25
2016-12-27T13:59:45.762Z,20
2016-12-27T14:00:54.458Z,20
2016-12-27T14:02:03.187Z,20
2016-12-27T14:03:11.881Z,20
2016-12-27T14:04:20.573Z,20
2016-12-27T14:05:29.278Z,15
2016-12-27T14:06:37.975Z,15
2016-12-27T14:07:46.670Z,15
2016-12-27T14:08:55.368Z,15
2016-12-27T14:10:04.061Z,15
2016-12-27T14:11:12.760Z,15
2016-12-27T14:12:21.455Z,10
2016-12-27T14:13:30.149Z,10
2016-12-27T14:14:38.847Z,10
2016-12-27T14:15:47.540Z,10
2016-12-27T14:16:56.260Z,10
2016-12-27T14:18:04.955Z,10
2016-12-27T14:19:13.647Z,5
2016-12-27T14:20:22.341Z,5
2016-12-27T14:21:31.040Z,5
2016-12-27T14:22:39.734Z,5
2016-12-27T14:23:48.430Z,5
2016-12-27T14:24:57.125Z,5
2016-12-27T14:26:05.819Z,5
2016-12-27T14:27:14.511Z,5
2016-12-27T14:28:23.205Z,5
2016-12-27T14:29:31.900Z,0
2016-12-27T14:30:40.915Z,0
2016-12-27T14:31:49.607Z,0
2016-12-27T14:32:58.305Z,0
2016-12-27T14:34:07.000Z,0
2016-12-27T14:35:15.695Z,0
2016-12-27T14:36:24.389Z,0
2016-12-27T14:37:33.084Z,0
2016-12-27T14:38:41.780Z,0
2016-12-27T14:39:50.479Z,0
2016-12-27T14:40:59.174Z,0
2016-12-27T14:42:07.870Z,0
2016-12-27T14:43:16.562Z,0
2016-12-27T14:44:25.283Z,0
2016-12-27T14:45:34.006Z,0
2016-12-27T14:46:42.700Z,0
2016-12-27T14:47:51.415Z,0
2016-12-27T14:49:00.109Z,0
2016-12-27T14:50:08.813Z,0
2016-12-27T14:51:17.506Z,0
2016-12-27T14:52:26.224Z,0
2016-12-27T14:53:34.916Z,0
2016-12-27T14:54:43.606Z,0
2016-12-27T14:55:52.303Z,0
2016-12-27T14:57:01.002Z,0
2016-12-27T14:58:09.699Z,0
2016-12-27T14:59:18.393Z,0
2016-12-27T15:00:27.088Z,0
2016-12-27T15:01:35.786Z,0
2016-12-27T15:02:44.481Z,0
2016-12-27T15:03:53.174Z,0
2016-12-27T15:05:01.861Z,0
2016-12-27T15:06:10.566Z,0
2016-12-27T15:07:19.261Z,0
2016-12-27T15:08:27.956Z,0
2016-12-27T15:09:36.650Z,0
2016-12-27T15:10:45.345Z,0
2016-12-27T15:11:54.039Z,0
2016-12-27T15:13:02.733Z,0
2016-12-27T15:14:11.428Z,0
2016-12-27T15:15:20.121Z,0
2016-12-27T15:16:28.817Z,0
2016-12-27T15:17:37.514Z,0
2016-12-27T15:18:46.211Z,0
2016-12-27T15:19:55.235Z,0
2016-12-27T15:21:03.931Z,0
2016-12-27T15:22:12.624Z,0
2016-12-27T15:23:21.318Z,0
2016-12-27T15:24:30.014Z,0
2016-12-27T15:25:38.707Z,0
2016-12-27T15:26:47.398Z,0
2016-12-27T15:27:56.098Z,0
2016-12-27T15:29:04.793Z,0
2016-12-27T15:30:13.488Z,0
2016-12-27T15:31:22.187Z,0
2016-12-27T15:32:30.879Z,0
2016-12-27T15:33:39.571Z,0
2016-12-27T15:34:48.265Z,0
2016-12-27T15:35:56.962Z,0
2016-12-27T15:37:05.658Z,0
2016-12-27T15:38:14.354Z,0
2016-12-27T15:39:23.066Z,0
2016-12-27T15:40:32.081Z,0
2016-12-27T15:41:40.773Z,0
2016-12-27T15:42:49.471Z,0
2016-12-27T15:43:58.167Z,0
2016-12-27T15:45:06.868Z,0
2016-12-27T15:46:15.565Z,0
2016-12-27T15:47:24.258Z,0
2016-12-27T15:48:32.959Z,0
2016-12-27T15:49:41.651Z,0
2016-12-27T15:50:50.348Z,0
2016-12-27T15:51:59.048Z,0
2016-12-27T15:53:07.745Z,0
2016-12-27T15:54:16.442Z,0
2016-12-27T15:55:25.137Z,0
2016-12-27T15:56:33.834Z,0
2016-12-27T15:57:42.530Z,0
2016-12-27T15:58:51.225Z,0
2016-12-27T15:59:59.918Z,0
2016-12-27T16:01:08.611Z,0
2016-12-27T16:02:17.306Z,0
2016-12-27T16:03:26.000Z,0
2016-12-27T16:04:35.007Z,0
2016-12-27T16:05:43.707Z,0
2016-12-27T16:06:52.405Z,0
2016-12-27T16:08:01.098Z,0
2016-12-27T16:09:09.790Z,0
2016-12-27T16:10:18.485Z,0
2016-12-27T16:11:27.179Z,0
2016-12-27T16:12:35.871Z,0
2016-12-27T16:13:44.563Z,0
2016-12-27T16:14:53.263Z,0
2016-12-27T16:16:02.309Z,0
2016-12-27T16:17:11.007Z,0
2016-12-27T16:18:19.700Z,0
2016-12-27T16:19:28.392Z,0
2016-12-27T16:20:37.087Z,0
2016-12-27T16:21:45.784Z,0
2016-12-27T16:22:54.473Z,0
2016-12-27T16:24:03.167Z,0
2016-12-27T16:25:11.860Z,0
2016-12-27T16:26:20.552Z,0
2016-12-27T16:27:29.243Z,0
2016-12-27T16:28:37.935Z,0
2016-12-27T16:29:46.626Z,0
2016-12-27T16:30:55.322Z,0
2016-12-27T16:32:04.018Z,0
2016-12-27T16:33:12.713Z,0
2016-12-27T16:34:21.407Z,0
2016-12-27T16:35:30.106Z,0
2016-12-27T16:36:38.800Z,0
2016-12-27T16:37:47.494Z,0